Flight Track Log - Related Links

Times and Time Zones

All times are in EST time to prevent confusion due to time zone crossing. See the CSQ212 flight status page for this flight to view local times or setup timezone preferences in your user account.

Time Position Orientation Groundspeed Altitude Reporting Facility
EST Latitude Longitude Course Direction KTS MPH feet Rate Location/Type
Thu 07:22:42 PM 23.4531 -81.3514 66° East 246 283 16,000  Level Miami Center
Thu 07:23:00 PM 25.6655 -80.6276 64° Northeast  Level FlightAware
Thu 07:23:42 PM 23.5286 -81.3358 11° North 261 300 16,000  Level Miami Center
Thu 07:24:00 PM 25.6953 -80.5607 64° Northeast  Level FlightAware
Thu 07:24:42 PM 23.6067 -81.3161 13° North 267 307 16,000  Level Miami Center
Thu 07:25:00 PM 25.7210 -80.4936 53° Northeast  Level FlightAware
Thu 07:25:42 PM 23.6825 -81.2961 14° North 278 320 16,000  Level Miami Center
Thu 07:26:00 PM 25.7575 -80.4313 66° East  Level FlightAware
Thu 07:26:42 PM 23.7581 -81.2783 12° North 278 320 16,000  Level Miami Center
Thu 07:27:42 PM 23.8339 -81.2606 12° North 278 320 16,000  Level Miami Center
Thu 07:28:42 PM 23.9114 -81.2450 10° North 278 320 16,000  Level Miami Center
Thu 07:29:42 PM 23.9914 -81.2297 10° North 278 320 16,000  Level Miami Center
Thu 07:30:42 PM 24.0692 -81.2142 10° North 278 320 16,000 -50 Level Miami Center
Thu 07:31:42 PM 24.1489 -81.1986 10° North 278 320 15,900 -300 Descending Miami Center
Thu 07:32:42 PM 24.2286 -81.1808 11° North 278 320 15,400 -450 Descending Miami Center
Thu 07:33:42 PM 24.3108 -81.1633 11° North 283 326 15,000 -450 Descending Miami Center
Thu 07:34:42 PM 24.3947 -81.1478 10° North 295 339 14,500 -500 Descending Miami Center
Thu 07:35:42 PM 24.4808 -81.1303 10° North 300 345 14,000 -500 Descending Miami Center
Thu 07:36:42 PM 24.5650 -81.1128 11° North 300 345 13,500 -500 Descending Miami Center
Thu 07:37:42 PM 24.6511 -81.0950 11° North 300 345 13,000 -500 Descending Miami Center
Thu 07:38:42 PM 24.7308 -81.0794 10° North 300 345 12,500 -550 Descending Miami Center
Thu 07:39:42 PM 24.8044 -81.0636 11° North 288 331 11,900 -550 Descending Miami Center
Thu 07:40:42 PM 24.8697 -81.0431 16° North 258 297 11,400 -500 Descending Miami Center
Thu 07:41:42 PM 24.9311 -81.0131 24° Northeast 242 278 10,900 -500 Descending Miami Center
Thu 07:42:42 PM 24.9925 -80.9831 24° Northeast 236 272 10,400 -500 Descending Miami Center
Thu 07:43:42 PM 25.0561 -80.9531 23° Northeast 236 272 9,900 -500 Descending Miami Center
Thu 07:44:42 PM 25.1153 -80.9253 23° Northeast 236 272 9,400 -300 Descending Miami Center
Thu 07:46:42 PM 25.2297 -80.8647 26° Northeast 236 272 9,000 -111 Descending Miami Center
Thu 07:47:24 PM 25.2697 -80.8500 18° North 237 273 9,100  Climbing Miami Center
Thu 07:47:42 PM 25.2931 -80.8414 18° North 231 266 9,000  Descending Miami Center
Thu 07:48:25 PM 25.3372 -80.8314 12° North 232 267 9,100  Climbing Miami Center
Thu 07:48:42 PM 25.3561 -80.8253 16° North 231 266 9,000  Descending Miami Center
Thu 07:49:20 PM 25.3939 -80.8194 North 234 269 9,100 -100 Climbing Miami Center
Thu 07:49:42 PM 25.4192 -80.8111 17° North 225 259 8,900 -492 Descending Miami Center
Thu 07:50:21 PM 25.4564 -80.8261 340° North 243 280 8,600 -500 Descending Miami Center
Thu 07:50:42 PM 25.4775 -80.8200 15° North 213 245 8,400 -492 Descending Miami Center
Thu 07:51:22 PM 25.5114 -80.7958 33° Northeast 241 277 8,100 -400 Descending Miami Center
Thu 07:51:42 PM 25.5286 -80.7781 43° Northeast 207 238 8,000  Descending Miami Center
Thu 07:52:23 PM 25.5608 -80.7489 39° Northeast 229 264 8,100  Climbing Miami Center
Thu 07:52:42 PM 25.5758 -80.7333 43° Northeast 207 238 8,000  Descending Miami Center
Thu 07:53:24 PM 25.6081 -80.7022 41° Northeast 233 268 8,100 100 Climbing Miami Center
Thu 07:53:42 PM 25.6186 -80.6886 49° Northeast 222 255 8,100  Level Miami Center
Thu 07:54:25 PM 25.6594 -80.6508 40° Northeast 233 268 8,100  Level Miami Center
Thu 07:54:42 PM 25.6744 -80.6375 39° Northeast 228 262 8,100  Level Miami Center
Thu 07:55:26 PM 25.7086 -80.6039 42° Northeast 235 270 8,100 -100 Level Miami Center
Thu 07:55:42 PM 25.7194 -80.5950 36° Northeast 227 261 8,000  Descending Miami Center
Thu 07:56:27 PM 25.7600 -80.5572 40° Northeast 236 272 8,100 54 Climbing Miami Center
Thu 07:57:34 PM 25.8136 -80.5011 43° Northeast 237 273 8,100  Level Miami Center
Thu 07:58:34 PM 25.8628 -80.4517 42° Northeast 238 274 8,100  Level Miami Center
Thu 07:59:29 PM 25.8708 -80.3850 82° East 238 274 8,100  Level Miami Center
Thu 08:00:30 PM 25.8744 -80.3114 87° East 237 273 8,100  Level Miami Center
Thu 08:01:31 PM 25.8783 -80.2397 87° East 232 267 8,100 -246 Level Miami Center
Thu 08:02:32 PM 25.8822 -80.1661 87° East 233 268 7,600 -1,078 Descending Miami Center
Thu 08:03:39 PM 25.8861 -80.0831 87° East 230 265 5,800 -1,574 Descending Miami Center
Thu 08:04:34 PM 25.8703 -80.0364 111° Southeast 197 227 4,400 -1,328 Descending Miami Center
Thu 08:05:41 PM 25.8219 -80.0514 196° South 186 214 3,100 -609 Descending Miami Center
Thu 08:06:42 PM 25.8064 -80.1017 251° West 169 194 3,100 -492 Level Miami Center
Thu 08:07:43 PM 25.8072 -80.1547 271° West 163 188 2,100 -787 Descending Miami Center
Thu 08:08:44 PM 25.8039 -80.2056 266° West 159 183 1,500 -689 Descending Miami Center
Thu 08:09:45 PM 25.8031 -80.2492 269° West 138 159 700 -787 Descending Miami Center

Login

Don't have an account? Register now (free) for customized features, flight alerts, and more!